createdAt,value
2022-09-04T00:00:12.403Z,998.48
2022-09-04T00:01:12.382Z,998.49
2022-09-04T00:02:12.358Z,998.48
2022-09-04T00:03:12.378Z,998.48
2022-09-04T00:04:13.344Z,998.49
2022-09-04T00:05:13.201Z,998.46
2022-09-04T00:06:12.338Z,998.46
2022-09-04T00:07:12.373Z,998.43
2022-09-04T00:08:12.344Z,998.44
2022-09-04T00:09:12.322Z,998.47
2022-09-04T00:10:12.376Z,998.49
2022-09-04T00:11:12.311Z,998.42
2022-09-04T00:12:12.304Z,998.46
2022-09-04T00:13:12.309Z,998.51
2022-09-04T00:14:12.352Z,998.54
2022-09-04T00:15:13.264Z,998.55
2022-09-04T00:16:12.305Z,998.52
2022-09-04T00:17:12.297Z,998.54
2022-09-04T00:18:12.260Z,998.62
2022-09-04T00:19:12.285Z,998.60
2022-09-04T00:20:12.251Z,998.64
2022-09-04T00:21:12.268Z,998.61
2022-09-04T00:22:12.244Z,998.62
2022-09-04T00:23:12.286Z,998.61
2022-09-04T00:24:12.228Z,998.66
2022-09-04T00:25:13.205Z,998.66
2022-09-04T00:26:12.237Z,998.66
2022-09-04T00:27:12.196Z,998.66
2022-09-04T00:28:12.225Z,998.68
2022-09-04T00:29:44.140Z,998.67
2022-09-04T00:30:12.209Z,998.68
2022-09-04T00:31:12.216Z,998.64
2022-09-04T00:32:12.169Z,998.63
2022-09-04T00:33:12.164Z,998.59
2022-09-04T00:34:12.152Z,998.62
2022-09-04T00:35:12.143Z,998.57
2022-09-04T00:36:12.137Z,998.60
2022-09-04T00:37:12.141Z,998.61
2022-09-04T00:38:13.117Z,998.58
2022-09-04T00:39:13.716Z,998.61
2022-09-04T00:40:12.108Z,998.61
2022-09-04T00:41:12.113Z,998.61
2022-09-04T00:42:12.120Z,998.61
2022-09-04T00:43:12.091Z,998.65
2022-09-04T00:44:12.087Z,998.69
2022-09-04T00:45:16.727Z,998.71
2022-09-04T00:46:12.170Z,998.75
2022-09-04T00:47:12.091Z,998.75
2022-09-04T00:48:12.060Z,998.79
2022-09-04T00:49:12.059Z,998.74
2022-09-04T00:50:12.067Z,998.80
2022-09-04T00:51:12.039Z,998.76
2022-09-04T00:52:12.035Z,998.80
2022-09-04T00:53:12.047Z,998.82
2022-09-04T00:54:12.023Z,998.79
2022-09-04T00:55:12.011Z,998.80
2022-09-04T00:56:12.008Z,998.86
2022-09-04T00:57:12.007Z,998.87
2022-09-04T00:58:12.000Z,998.87
2022-09-04T00:59:11.979Z,998.83
2022-09-04T01:00:12.013Z,998.85
2022-09-04T01:01:12.073Z,998.89
2022-09-04T01:02:12.035Z,998.92
2022-09-04T01:03:11.988Z,998.91
2022-09-04T01:04:11.952Z,998.93
2022-09-04T01:05:12.006Z,998.96
2022-09-04T01:06:12.947Z,998.92
2022-09-04T01:07:11.940Z,998.97
2022-09-04T01:08:16.359Z,998.92
2022-09-04T01:09:12.914Z,998.96
2022-09-04T01:10:11.966Z,998.97
2022-09-04T01:11:11.932Z,999.03
2022-09-04T01:12:11.892Z,999.02
2022-09-04T01:13:11.893Z,999.02
2022-09-04T01:14:11.884Z,999.04
2022-09-04T01:15:11.896Z,999.08
2022-09-04T01:16:11.925Z,999.14
2022-09-04T01:17:11.869Z,999.09
2022-09-04T01:18:11.856Z,999.12
2022-09-04T01:19:11.860Z,999.14
2022-09-04T01:20:11.839Z,999.10
2022-09-04T01:21:11.844Z,999.11
2022-09-04T01:22:12.831Z,999.10
2022-09-04T01:23:11.832Z,999.13
2022-09-04T01:24:11.820Z,999.09
2022-09-04T01:25:11.824Z,999.14
2022-09-04T01:26:11.833Z,999.17
2022-09-04T01:27:11.804Z,999.21
2022-09-04T01:28:11.788Z,999.19
2022-09-04T01:29:11.785Z,999.18
2022-09-04T01:30:11.773Z,999.15
2022-09-04T01:31:11.768Z,999.16
2022-09-04T01:32:12.700Z,999.19
2022-09-04T01:33:11.760Z,999.17
2022-09-04T01:34:11.757Z,999.11
2022-09-04T01:35:11.744Z,999.18
2022-09-04T01:36:11.738Z,999.15
2022-09-04T01:37:11.754Z,999.17
2022-09-04T01:38:11.745Z,999.14
2022-09-04T01:39:11.720Z,999.11
2022-09-04T01:40:11.716Z,999.15
2022-09-04T01:41:11.700Z,999.21
2022-09-04T01:42:11.721Z,999.18
2022-09-04T01:43:11.693Z,999.17
2022-09-04T01:44:11.705Z,999.17
2022-09-04T01:45:11.683Z,999.21
2022-09-04T01:46:11.844Z,999.13
2022-09-04T01:47:11.671Z,999.15
2022-09-04T01:48:11.663Z,999.13
2022-09-04T01:49:11.663Z,999.18
2022-09-04T01:50:11.635Z,999.20
2022-09-04T01:51:11.641Z,999.19
2022-09-04T01:52:11.632Z,999.19
2022-09-04T01:53:11.629Z,999.18
2022-09-04T01:54:11.628Z,999.15
2022-09-04T01:55:11.616Z,999.17
2022-09-04T01:56:11.608Z,999.10
2022-09-04T01:57:11.596Z,999.08
2022-09-04T01:58:11.592Z,999.08
2022-09-04T01:59:11.596Z,999.13
2022-09-04T02:00:11.596Z,999.15
2022-09-04T02:01:11.624Z,999.14
2022-09-04T02:02:11.649Z,999.12
2022-09-04T02:03:11.559Z,999.16
2022-09-04T02:04:11.587Z,999.12
2022-09-04T02:05:11.548Z,999.15
2022-09-04T02:06:11.541Z,999.17
2022-09-04T02:07:11.531Z,999.12
2022-09-04T02:08:11.533Z,999.19
2022-09-04T02:09:11.578Z,999.18
2022-09-04T02:10:11.521Z,999.18
2022-09-04T02:11:11.514Z,999.13
2022-09-04T02:12:11.516Z,999.15
2022-09-04T02:13:11.488Z,999.18
2022-09-04T02:14:11.474Z,999.17
2022-09-04T02:15:11.498Z,999.17
2022-09-04T02:16:11.592Z,999.14
2022-09-04T02:17:11.494Z,999.15
2022-09-04T02:18:11.459Z,999.15
2022-09-04T02:19:11.495Z,999.17
2022-09-04T02:20:11.437Z,999.13
2022-09-04T02:21:11.464Z,999.19
2022-09-04T02:22:11.440Z,999.16
2022-09-04T02:23:11.420Z,999.12
2022-09-04T02:24:11.414Z,999.16
2022-09-04T02:25:11.408Z,999.15
2022-09-04T02:26:11.401Z,999.17
2022-09-04T02:27:11.408Z,999.22
2022-09-04T02:28:11.379Z,999.17
2022-09-04T02:29:11.391Z,999.21
2022-09-04T02:30:11.385Z,999.19
2022-09-04T02:31:11.415Z,999.19
2022-09-04T02:32:11.379Z,999.23
2022-09-04T02:33:11.353Z,999.24
2022-09-04T02:34:11.359Z,999.27
2022-09-04T02:35:11.346Z,999.24
2022-09-04T02:36:11.339Z,999.30
2022-09-04T02:37:11.345Z,999.24
2022-09-04T02:38:11.317Z,999.29
2022-09-04T02:39:11.319Z,999.26
2022-09-04T02:40:11.309Z,999.34
2022-09-04T02:41:11.300Z,999.38
2022-09-04T02:42:11.288Z,999.36
2022-09-04T02:43:11.325Z,999.36
2022-09-04T02:44:11.292Z,999.31
2022-09-04T02:45:11.280Z,999.34
2022-09-04T02:46:11.268Z,999.36
2022-09-04T02:47:11.362Z,999.39
2022-09-04T02:48:11.273Z,999.39
2022-09-04T02:49:11.336Z,999.36
2022-09-04T02:50:11.267Z,999.32
2022-09-04T02:51:11.237Z,999.35
2022-09-04T02:52:11.255Z,999.37
2022-09-04T02:53:11.222Z,999.40
2022-09-04T02:54:11.215Z,999.39
2022-09-04T02:55:11.233Z,999.38
2022-09-04T02:56:11.203Z,999.43
2022-09-04T02:57:11.320Z,999.38
2022-09-04T02:58:11.201Z,999.36
2022-09-04T02:59:11.193Z,999.41
2022-09-04T03:00:11.210Z,999.40
2022-09-04T03:01:11.350Z,999.44
2022-09-04T03:02:11.218Z,999.42
2022-09-04T03:03:11.176Z,999.42
2022-09-04T03:04:11.161Z,999.45
2022-09-04T03:05:11.164Z,999.48
2022-09-04T03:06:11.132Z,999.50
2022-09-04T03:07:11.136Z,999.49
2022-09-04T03:08:11.136Z,999.47
2022-09-04T03:09:11.116Z,999.52
2022-09-04T03:10:11.145Z,999.56
2022-09-04T03:11:11.096Z,999.61
2022-09-04T03:12:11.092Z,999.56
2022-09-04T03:13:11.087Z,999.54
2022-09-04T03:14:11.076Z,999.52
2022-09-04T03:15:11.071Z,999.55
2022-09-04T03:16:11.125Z,999.56
2022-09-04T03:17:11.057Z,999.51
2022-09-04T03:18:15.006Z,999.55
2022-09-04T03:19:13.059Z,999.56
2022-09-04T03:20:11.039Z,999.57
2022-09-04T03:21:11.056Z,999.59
2022-09-04T03:22:11.033Z,999.64
2022-09-04T03:23:11.025Z,999.64
2022-09-04T03:24:11.004Z,999.63
2022-09-04T03:25:11.004Z,999.71
2022-09-04T03:26:10.996Z,999.68
2022-09-04T03:27:10.999Z,999.66
2022-09-04T03:28:10.988Z,999.68
2022-09-04T03:29:10.980Z,999.68
2022-09-04T03:30:10.971Z,999.66
2022-09-04T03:31:11.017Z,999.71
2022-09-04T03:32:16.470Z,999.72
2022-09-04T03:33:12.952Z,999.76
2022-09-04T03:34:10.944Z,999.73
2022-09-04T03:35:10.933Z,999.78
2022-09-04T03:36:10.936Z,999.79
2022-09-04T03:37:10.938Z,999.80
2022-09-04T03:38:10.925Z,999.78
2022-09-04T03:39:10.921Z,999.79
2022-09-04T03:40:10.904Z,999.79
2022-09-04T03:41:10.905Z,999.78
2022-09-04T03:42:10.895Z,999.76
2022-09-04T03:43:10.895Z,999.73
2022-09-04T03:44:10.884Z,999.74
2022-09-04T03:45:10.873Z,999.70
2022-09-04T03:46:10.893Z,999.73
2022-09-04T03:47:10.855Z,999.72
2022-09-04T03:48:10.866Z,999.70
2022-09-04T03:49:10.852Z,999.71
2022-09-04T03:50:10.848Z,999.74
2022-09-04T03:51:10.840Z,999.73
2022-09-04T03:52:10.835Z,999.78
2022-09-04T03:53:10.823Z,999.66
2022-09-04T03:54:10.812Z,999.72
2022-09-04T03:55:10.810Z,999.76
2022-09-04T03:56:10.810Z,999.74
2022-09-04T03:57:10.803Z,999.77
2022-09-04T03:58:10.785Z,999.78
2022-09-04T03:59:10.779Z,999.79
2022-09-04T04:00:10.776Z,999.74
2022-09-04T04:01:11.312Z,999.77
2022-09-04T04:02:10.760Z,999.76
2022-09-04T04:03:10.810Z,999.85
2022-09-04T04:04:10.766Z,999.86
2022-09-04T04:05:10.738Z,999.86
2022-09-04T04:06:11.766Z,999.94
2022-09-04T04:07:10.735Z,999.86
2022-09-04T04:08:10.728Z,999.88
2022-09-04T04:09:10.714Z,999.89
2022-09-04T04:10:10.717Z,999.91
2022-09-04T04:11:10.710Z,999.90
2022-09-04T04:12:10.718Z,999.87
2022-09-04T04:13:10.704Z,999.88
2022-09-04T04:14:10.690Z,999.95
2022-09-04T04:15:10.693Z,999.92
2022-09-04T04:16:10.723Z,999.90
2022-09-04T04:17:12.977Z,999.91
2022-09-04T04:18:10.698Z,999.93
2022-09-04T04:19:10.662Z,999.94
2022-09-04T04:20:10.646Z,999.98
2022-09-04T04:21:11.650Z,999.91
2022-09-04T04:22:10.654Z,999.94
2022-09-04T04:23:10.666Z,999.95
2022-09-04T04:24:10.646Z,999.96
2022-09-04T04:25:10.623Z,999.99
2022-09-04T04:26:10.642Z,999.99
2022-09-04T04:27:10.605Z,999.95
2022-09-04T04:28:10.638Z,1000.05
2022-09-04T04:29:10.615Z,1000.02
2022-09-04T04:30:10.592Z,1000.04
2022-09-04T04:31:10.622Z,1000.04
2022-09-04T04:32:10.663Z,999.99
2022-09-04T04:33:10.626Z,1000.00
2022-09-04T04:34:10.570Z,1000.08
2022-09-04T04:35:10.573Z,1000.03
2022-09-04T04:36:10.578Z,1000.09
2022-09-04T04:37:10.583Z,1000.09
2022-09-04T04:38:10.562Z,1000.11
2022-09-04T04:39:10.546Z,1000.14
2022-09-04T04:40:10.617Z,1000.09
2022-09-04T04:41:10.521Z,1000.11
2022-09-04T04:42:10.510Z,1000.09
2022-09-04T04:43:10.535Z,1000.14
2022-09-04T04:44:10.522Z,1000.16
2022-09-04T04:45:10.502Z,1000.17
2022-09-04T04:46:10.544Z,1000.17
2022-09-04T04:47:10.497Z,1000.19
2022-09-04T04:48:10.490Z,1000.10
2022-09-04T04:49:10.505Z,1000.20
2022-09-04T04:50:10.486Z,1000.20
2022-09-04T04:51:10.473Z,1000.21
2022-09-04T04:52:10.478Z,1000.27
2022-09-04T04:53:10.442Z,1000.29
2022-09-04T04:54:11.479Z,1000.26
2022-09-04T04:55:10.453Z,1000.29
2022-09-04T04:56:10.442Z,1000.35
2022-09-04T04:57:10.435Z,1000.38
2022-09-04T04:58:10.426Z,1000.34
2022-09-04T04:59:10.434Z,1000.37
2022-09-04T05:00:10.423Z,1000.33
2022-09-04T05:01:10.410Z,1000.34
2022-09-04T05:02:10.577Z,1000.36
2022-09-04T05:03:10.402Z,1000.39
2022-09-04T05:04:10.401Z,1000.37
2022-09-04T05:05:10.381Z,1000.38
2022-09-04T05:06:10.382Z,1000.42
2022-09-04T05:07:10.370Z,1000.37
2022-09-04T05:08:10.362Z,1000.32
2022-09-04T05:09:10.366Z,1000.39
2022-09-04T05:10:10.354Z,1000.38
2022-09-04T05:11:10.341Z,1000.52
2022-09-04T05:12:10.326Z,1000.44
2022-09-04T05:13:10.331Z,1000.46
2022-09-04T05:14:10.352Z,1000.48
2022-09-04T05:15:10.318Z,1000.46
2022-09-04T05:16:10.410Z,1000.48
2022-09-04T05:17:12.353Z,1000.49
2022-09-04T05:18:10.313Z,1000.52
2022-09-04T05:19:10.309Z,1000.50
2022-09-04T05:20:10.275Z,1000.58
2022-09-04T05:21:10.280Z,1000.52
2022-09-04T05:22:10.288Z,1000.57
2022-09-04T05:23:10.268Z,1000.58
2022-09-04T05:24:10.268Z,1000.54
2022-09-04T05:25:10.276Z,1000.61
2022-09-04T05:26:10.259Z,1000.64
2022-09-04T05:27:10.240Z,1000.64
2022-09-04T05:28:10.233Z,1000.74
2022-09-04T05:29:10.232Z,1000.73
2022-09-04T05:30:10.244Z,1000.77
2022-09-04T05:31:10.270Z,1000.79
2022-09-04T05:32:11.216Z,1000.76
2022-09-04T05:33:10.222Z,1000.76
2022-09-04T05:34:10.191Z,1000.74
2022-09-04T05:35:10.203Z,1000.77
2022-09-04T05:36:10.191Z,1000.85
2022-09-04T05:37:10.180Z,1000.81
2022-09-04T05:38:10.184Z,1000.86
2022-09-04T05:39:10.165Z,1000.93
2022-09-04T05:40:10.167Z,1000.94
2022-09-04T05:41:10.171Z,1000.97
2022-09-04T05:42:10.152Z,1000.99
2022-09-04T05:43:10.131Z,1000.99
2022-09-04T05:44:10.128Z,1000.97
2022-09-04T05:45:10.124Z,1001.00
2022-09-04T05:46:10.146Z,1001.01
2022-09-04T05:47:10.105Z,1000.94
2022-09-04T05:48:10.098Z,1001.01
2022-09-04T05:49:10.117Z,1001.00
2022-09-04T05:50:10.084Z,1001.05
2022-09-04T05:51:10.076Z,1001.00
2022-09-04T05:52:10.088Z,1001.05
2022-09-04T05:53:10.068Z,1001.01
2022-09-04T05:54:10.068Z,1001.08
2022-09-04T05:55:10.057Z,1001.06
2022-09-04T05:56:10.042Z,1001.08
2022-09-04T05:57:10.060Z,1001.02
2022-09-04T05:58:10.044Z,1001.10
2022-09-04T05:59:10.034Z,1001.06
2022-09-04T06:00:10.025Z,1001.08
2022-09-04T06:01:10.019Z,1001.12
2022-09-04T06:02:10.127Z,1001.12
2022-09-04T06:03:10.127Z,1001.11
2022-09-04T06:04:10.014Z,1001.12
2022-09-04T06:05:09.995Z,1001.14
2022-09-04T06:06:10.052Z,1001.12
2022-09-04T06:07:10.009Z,1001.08
2022-09-04T06:08:09.972Z,1001.12
2022-09-04T06:09:09.967Z,1001.05
2022-09-04T06:10:09.960Z,1001.07
2022-09-04T06:11:09.956Z,1001.12
2022-09-04T06:12:09.948Z,1001.12
2022-09-04T06:13:09.952Z,1001.08
2022-09-04T06:14:09.935Z,1001.15
2022-09-04T06:15:09.920Z,1001.16
2022-09-04T06:16:09.965Z,1001.15
2022-09-04T06:17:09.918Z,1001.19
2022-09-04T06:18:09.939Z,1001.18
2022-09-04T06:19:09.895Z,1001.17
2022-09-04T06:20:09.896Z,1001.26
2022-09-04T06:21:09.893Z,1001.20
2022-09-04T06:22:09.882Z,1001.17
2022-09-04T06:23:09.868Z,1001.25
2022-09-04T06:24:09.886Z,1001.22
2022-09-04T06:25:10.750Z,1001.23
2022-09-04T06:26:09.838Z,1001.23
2022-09-04T06:27:09.866Z,1001.23
2022-09-04T06:28:09.844Z,1001.25
2022-09-04T06:29:09.847Z,1001.21
2022-09-04T06:30:09.862Z,1001.20
2022-09-04T06:31:09.844Z,1001.24
2022-09-04T06:32:09.812Z,1001.27
2022-09-04T06:33:09.801Z,1001.24
2022-09-04T06:34:09.805Z,1001.27
2022-09-04T06:35:09.824Z,1001.27
2022-09-04T06:36:09.791Z,1001.32
2022-09-04T06:37:09.779Z,1001.32
2022-09-04T06:38:09.771Z,1001.24
2022-09-04T06:39:09.768Z,1001.27
2022-09-04T06:40:09.779Z,1001.28
2022-09-04T06:41:09.765Z,1001.26
2022-09-04T06:42:09.752Z,1001.29
2022-09-04T06:43:09.776Z,1001.28
2022-09-04T06:44:09.734Z,1001.27
2022-09-04T06:45:09.741Z,1001.27
2022-09-04T06:46:10.790Z,1001.29
2022-09-04T06:47:10.742Z,1001.30
2022-09-04T06:48:09.853Z,1001.35
2022-09-04T06:49:09.721Z,1001.39
2022-09-04T06:50:10.721Z,1001.37
2022-09-04T06:51:09.715Z,1001.40
2022-09-04T06:52:09.702Z,1001.31
2022-09-04T06:53:09.684Z,1001.41
2022-09-04T06:54:09.679Z,1001.38
2022-09-04T06:55:09.687Z,1001.40
2022-09-04T06:56:09.705Z,1001.41
2022-09-04T06:57:09.666Z,1001.51
2022-09-04T06:58:09.660Z,1001.47
2022-09-04T06:59:09.644Z,1001.47
2022-09-04T07:00:09.640Z,1001.46
2022-09-04T07:01:09.720Z,1001.46
2022-09-04T07:02:09.766Z,1001.42
2022-09-04T07:03:09.860Z,1001.44
2022-09-04T07:04:10.633Z,1001.45
2022-09-04T07:05:09.602Z,1001.51
2022-09-04T07:06:09.595Z,1001.51
2022-09-04T07:07:09.617Z,1001.48
2022-09-04T07:08:09.583Z,1001.42
2022-09-04T07:09:09.601Z,1001.47
2022-09-04T07:10:10.561Z,1001.47
2022-09-04T07:11:10.582Z,1001.50
2022-09-04T07:12:09.569Z,1001.56
2022-09-04T07:13:09.561Z,1001.59
2022-09-04T07:14:09.551Z,1001.50
2022-09-04T07:15:09.547Z,1001.56
2022-09-04T07:16:09.651Z,1001.59
2022-09-04T07:17:09.544Z,1001.58
2022-09-04T07:18:09.535Z,1001.57
2022-09-04T07:19:09.517Z,1001.57
2022-09-04T07:20:10.215Z,1001.55
2022-09-04T07:21:09.515Z,1001.56
2022-09-04T07:22:09.515Z,1001.52
2022-09-04T07:23:09.559Z,1001.55
2022-09-04T07:24:09.541Z,1001.53
2022-09-04T07:25:09.509Z,1001.51
2022-09-04T07:26:09.493Z,1001.62
2022-09-04T07:27:09.478Z,1001.67
2022-09-04T07:28:10.481Z,1001.63
2022-09-04T07:29:09.494Z,1001.66
2022-09-04T07:30:10.334Z,1001.74
2022-09-04T07:31:09.499Z,1001.77
2022-09-04T07:32:09.442Z,1001.70
2022-09-04T07:33:09.456Z,1001.68
2022-09-04T07:34:09.421Z,1001.69
2022-09-04T07:35:09.446Z,1001.68
2022-09-04T07:36:09.434Z,1001.65
2022-09-04T07:37:09.466Z,1001.75
2022-09-04T07:38:09.449Z,1001.64
2022-09-04T07:39:09.401Z,1001.66
2022-09-04T07:40:11.196Z,1001.72
2022-09-04T07:41:09.368Z,1001.63
2022-09-04T07:42:09.380Z,1001.63
2022-09-04T07:43:09.385Z,1001.69
2022-09-04T07:44:09.381Z,1001.72
2022-09-04T07:45:09.389Z,1001.74
2022-09-04T07:46:09.403Z,1001.82
2022-09-04T07:47:09.353Z,1001.80
2022-09-04T07:48:09.385Z,1001.80
2022-09-04T07:49:09.410Z,1001.82
2022-09-04T07:50:09.340Z,1001.90
2022-09-04T07:51:10.151Z,1001.82
2022-09-04T07:52:09.322Z,1001.85
2022-09-04T07:53:11.319Z,1001.86
2022-09-04T07:54:10.306Z,1001.87
2022-09-04T07:55:10.231Z,1001.90
2022-09-04T07:56:10.260Z,1001.89
2022-09-04T07:57:09.288Z,1001.89
2022-09-04T07:58:09.280Z,1001.90
2022-09-04T07:59:09.275Z,1001.83
2022-09-04T08:00:09.256Z,1001.84
2022-09-04T08:01:09.346Z,1001.89
2022-09-04T08:02:09.263Z,1001.88
2022-09-04T08:03:09.243Z,1001.93
2022-09-04T08:04:09.246Z,1001.85
2022-09-04T08:05:09.273Z,1001.84
2022-09-04T08:06:09.232Z,1001.87
2022-09-04T08:07:11.482Z,1001.86
2022-09-04T08:08:10.229Z,1001.87
2022-09-04T08:09:09.216Z,1001.97
2022-09-04T08:10:09.206Z,1001.99
2022-09-04T08:11:09.201Z,1002.00
2022-09-04T08:12:09.201Z,1002.01
2022-09-04T08:13:09.181Z,1002.00
2022-09-04T08:14:09.192Z,1001.94
2022-09-04T08:15:09.161Z,1001.98
2022-09-04T08:16:10.215Z,1002.05
2022-09-04T08:17:09.165Z,1002.06
2022-09-04T08:18:09.194Z,1002.07
2022-09-04T08:19:09.162Z,1002.13
2022-09-04T08:20:09.126Z,1002.06
2022-09-04T08:21:09.125Z,1002.08
2022-09-04T08:22:09.189Z,1002.12
2022-09-04T08:23:09.126Z,1002.06
2022-09-04T08:24:09.118Z,1002.07
2022-09-04T08:25:09.134Z,1002.12
2022-09-04T08:26:09.101Z,1002.14
2022-09-04T08:27:09.102Z,1002.11
2022-09-04T08:28:09.087Z,1001.96
2022-09-04T08:29:09.088Z,1002.05
2022-09-04T08:30:09.079Z,1002.07
2022-09-04T08:31:09.126Z,1002.14
2022-09-04T08:32:09.077Z,1002.10
2022-09-04T08:33:09.078Z,1002.07
2022-09-04T08:34:09.073Z,1002.09
2022-09-04T08:35:09.040Z,1002.12
2022-09-04T08:36:09.043Z,1002.10
2022-09-04T08:37:09.024Z,1002.07
2022-09-04T08:38:09.045Z,1002.06
2022-09-04T08:39:09.020Z,1002.01
2022-09-04T08:40:09.018Z,1002.14
2022-09-04T08:41:09.144Z,1002.08
2022-09-04T08:42:09.012Z,1002.15
2022-09-04T08:43:09.008Z,1002.14
2022-09-04T08:44:09.877Z,1002.11
2022-09-04T08:45:08.981Z,1002.09
2022-09-04T08:46:09.082Z,1002.07
2022-09-04T08:47:08.973Z,1002.05
2022-09-04T08:48:08.979Z,1002.03
2022-09-04T08:49:09.010Z,1002.08
2022-09-04T08:50:08.949Z,1002.01
2022-09-04T08:51:08.948Z,1002.11
2022-09-04T08:52:08.962Z,1002.11
2022-09-04T08:53:08.948Z,1002.12
2022-09-04T08:54:08.934Z,1002.12
2022-09-04T08:55:08.930Z,1002.15
2022-09-04T08:56:08.923Z,1002.18
2022-09-04T08:57:08.926Z,1002.15
2022-09-04T08:58:08.934Z,1002.09
2022-09-04T08:59:08.931Z,1002.12
2022-09-04T09:00:08.900Z,1002.15
2022-09-04T09:01:08.950Z,1002.20
2022-09-04T09:02:08.924Z,1002.23
2022-09-04T09:03:08.911Z,1002.20
2022-09-04T09:04:08.898Z,1002.14
2022-09-04T09:05:08.881Z,1002.15
2022-09-04T09:06:08.866Z,1002.19
2022-09-04T09:07:08.868Z,1002.15
2022-09-04T09:08:08.879Z,1002.17
2022-09-04T09:09:08.864Z,1002.19
2022-09-04T09:10:08.870Z,1002.09
2022-09-04T09:11:08.868Z,1002.09
2022-09-04T09:12:08.838Z,1002.17
2022-09-04T09:13:08.834Z,1002.16
2022-09-04T09:14:08.890Z,1002.14
2022-09-04T09:15:08.837Z,1002.19
2022-09-04T09:16:08.830Z,1002.18
2022-09-04T09:17:08.822Z,1002.19
2022-09-04T09:18:08.822Z,1002.16
2022-09-04T09:19:08.837Z,1001.90
2022-09-04T09:20:08.799Z,1002.15
2022-09-04T09:21:08.816Z,1002.14
2022-09-04T09:22:09.743Z,1002.07
2022-09-04T09:23:08.815Z,1002.10
2022-09-04T09:24:08.788Z,1002.15
2022-09-04T09:25:08.830Z,1002.11
2022-09-04T09:26:08.792Z,1002.10
2022-09-04T09:27:08.762Z,1002.02
2022-09-04T09:28:08.762Z,1002.05
2022-09-04T09:29:08.769Z,1002.04
2022-09-04T09:30:08.783Z,1001.96
2022-09-04T09:31:08.806Z,1001.94
2022-09-04T09:32:08.737Z,1001.90
2022-09-04T09:33:08.727Z,1001.85
2022-09-04T09:34:08.723Z,1001.93
2022-09-04T09:35:08.724Z,1001.94
2022-09-04T09:36:08.711Z,1001.76
2022-09-04T09:37:08.731Z,1001.86
2022-09-04T09:38:08.773Z,1001.77
2022-09-04T09:39:08.710Z,1001.85
2022-09-04T09:40:08.761Z,1001.82
2022-09-04T09:41:08.676Z,1001.78
2022-09-04T09:42:08.670Z,1001.71
2022-09-04T09:43:08.668Z,1001.76
2022-09-04T09:44:08.663Z,1001.76
2022-09-04T09:45:08.665Z,1001.72
2022-09-04T09:46:08.712Z,1001.68
2022-09-04T09:47:08.630Z,1001.68
2022-09-04T09:48:11.530Z,1001.69
2022-09-04T09:49:15.199Z,1001.69
2022-09-04T09:50:09.613Z,1001.67
2022-09-04T09:51:08.629Z,1001.68
2022-09-04T09:52:08.603Z,1001.61
2022-09-04T09:53:08.611Z,1001.66
2022-09-04T09:54:08.615Z,1001.63
2022-09-04T09:55:08.602Z,1001.56
2022-09-04T09:56:08.615Z,1001.59
2022-09-04T09:57:08.597Z,1001.62
2022-09-04T09:58:08.577Z,1001.50
2022-09-04T09:59:08.558Z,1001.45
2022-09-04T10:00:08.549Z,1001.56
2022-09-04T10:01:08.845Z,1001.45
2022-09-04T10:02:08.628Z,1001.49
2022-09-04T10:03:09.254Z,1001.54
2022-09-04T10:04:08.553Z,1001.42
2022-09-04T10:05:08.510Z,1001.52
2022-09-04T10:06:08.511Z,1001.49
2022-09-04T10:07:08.514Z,1001.51
2022-09-04T10:08:08.531Z,1001.49
2022-09-04T10:09:09.641Z,1001.51
2022-09-04T10:10:09.490Z,1001.53
2022-09-04T10:11:08.483Z,1001.46
2022-09-04T10:12:08.508Z,1001.44
2022-09-04T10:13:08.574Z,1001.44
2022-09-04T10:14:08.459Z,1001.49
2022-09-04T10:15:08.465Z,1001.43
2022-09-04T10:16:08.525Z,1001.37
2022-09-04T10:17:08.451Z,1001.41
2022-09-04T10:18:08.455Z,1001.38
2022-09-04T10:19:08.486Z,1001.33
2022-09-04T10:20:08.433Z,1001.24
2022-09-04T10:21:08.425Z,1001.28
2022-09-04T10:22:08.421Z,1001.23
2022-09-04T10:23:08.432Z,1001.16
2022-09-04T10:24:08.432Z,1001.29
2022-09-04T10:25:08.410Z,1001.19
2022-09-04T10:26:08.408Z,1001.15
2022-09-04T10:27:08.389Z,1001.22
2022-09-04T10:28:08.384Z,1001.26
2022-09-04T10:29:18.156Z,1001.27
2022-09-04T10:30:08.400Z,1001.32
2022-09-04T10:31:09.314Z,1001.30
2022-09-04T10:32:08.364Z,1001.39
2022-09-04T10:33:11.671Z,1001.33
2022-09-04T10:34:09.381Z,1001.37
2022-09-04T10:35:09.209Z,1001.31
2022-09-04T10:36:08.441Z,1001.21
2022-09-04T10:37:08.348Z,1001.20
2022-09-04T10:38:08.329Z,1001.19
2022-09-04T10:39:08.364Z,1001.21
2022-09-04T10:40:08.463Z,1001.23
2022-09-04T10:41:08.338Z,1001.15
2022-09-04T10:42:08.482Z,1001.16
2022-09-04T10:43:08.396Z,1001.13
2022-09-04T10:44:08.302Z,1001.09
2022-09-04T10:45:08.303Z,1001.03
2022-09-04T10:46:08.444Z,1001.05
2022-09-04T10:47:08.314Z,1001.01
2022-09-04T10:48:09.372Z,1001.00
2022-09-04T10:49:08.280Z,1001.04
2022-09-04T10:50:08.796Z,1001.03
2022-09-04T10:51:08.280Z,1001.04
2022-09-04T10:52:08.268Z,1001.03
2022-09-04T10:53:08.268Z,1001.03
2022-09-04T10:54:08.331Z,1001.13
2022-09-04T10:55:08.244Z,1001.07
2022-09-04T10:56:08.296Z,1001.05
2022-09-04T10:57:08.295Z,1001.00
2022-09-04T10:58:08.256Z,1001.04
2022-09-04T10:59:08.263Z,1001.02
2022-09-04T11:00:08.247Z,1001.00
2022-09-04T11:01:08.369Z,1000.99
2022-09-04T11:02:08.259Z,1001.02
2022-09-04T11:03:08.227Z,1000.95
2022-09-04T11:04:08.207Z,1001.04
2022-09-04T11:05:08.724Z,1000.93
2022-09-04T11:06:08.212Z,1000.88
2022-09-04T11:07:08.192Z,1000.93
2022-09-04T11:08:08.187Z,1000.94
2022-09-04T11:09:08.168Z,1000.90
2022-09-04T11:10:08.380Z,1000.83
2022-09-04T11:11:08.172Z,1000.97
2022-09-04T11:12:08.159Z,1000.99
2022-09-04T11:13:08.168Z,1001.01
2022-09-04T11:14:08.163Z,1000.98
2022-09-04T11:15:08.164Z,1000.88
2022-09-04T11:16:08.178Z,1000.86
2022-09-04T11:17:08.144Z,1000.93
2022-09-04T11:18:08.135Z,1000.94
2022-09-04T11:19:08.785Z,1000.98
2022-09-04T11:20:08.176Z,1000.92
2022-09-04T11:21:08.121Z,1000.96
2022-09-04T11:22:08.136Z,1000.94
2022-09-04T11:23:08.119Z,1000.96
2022-09-04T11:24:08.283Z,1000.95
2022-09-04T11:25:08.095Z,1000.97
2022-09-04T11:26:08.120Z,1000.95
2022-09-04T11:27:08.474Z,1000.94
2022-09-04T11:28:09.099Z,1000.82
2022-09-04T11:29:08.120Z,1000.80
2022-09-04T11:30:08.107Z,1000.80
2022-09-04T11:31:08.108Z,1000.79
2022-09-04T11:32:08.124Z,1000.48
2022-09-04T11:33:08.071Z,1000.74
2022-09-04T11:34:08.099Z,1001.07
2022-09-04T11:35:08.086Z,1000.98
2022-09-04T11:36:08.056Z,1001.00
2022-09-04T11:37:08.690Z,1000.90
2022-09-04T11:38:08.043Z,1000.91
2022-09-04T11:39:08.043Z,1000.90
2022-09-04T11:40:08.166Z,1000.87
2022-09-04T11:41:08.030Z,1000.80
2022-09-04T11:42:08.048Z,1000.87
2022-09-04T11:43:08.016Z,1000.86
2022-09-04T11:44:08.167Z,1000.66
2022-09-04T11:45:09.299Z,1000.73
2022-09-04T11:46:08.115Z,1001.07
2022-09-04T11:47:08.002Z,1001.08
2022-09-04T11:48:08.028Z,1001.07
2022-09-04T11:49:08.038Z,1001.06
2022-09-04T11:50:08.009Z,1001.02
2022-09-04T11:51:07.977Z,1000.98
2022-09-04T11:52:08.009Z,1000.93
2022-09-04T11:53:07.981Z,1000.91
2022-09-04T11:54:07.973Z,1000.91
2022-09-04T11:55:07.953Z,1000.55
2022-09-04T11:56:07.973Z,1000.81
2022-09-04T11:57:07.945Z,1000.99
2022-09-04T11:58:07.932Z,1001.01
2022-09-04T11:59:07.925Z,1001.00
2022-09-04T12:00:07.956Z,1000.90
2022-09-04T12:01:10.052Z,1000.88
2022-09-04T12:02:07.962Z,1000.84
2022-09-04T12:03:07.921Z,1000.79
2022-09-04T12:04:07.964Z,1000.90
2022-09-04T12:05:07.910Z,1000.89
2022-09-04T12:06:07.901Z,1000.88
2022-09-04T12:07:07.894Z,1000.87
2022-09-04T12:08:07.882Z,1000.80
2022-09-04T12:09:07.890Z,1000.86
2022-09-04T12:10:07.876Z,1000.88
2022-09-04T12:11:07.882Z,1000.84
2022-09-04T12:12:07.884Z,1000.81
2022-09-04T12:13:25.660Z,1000.83